createdAt,value
2022-10-09T00:02:12.460Z,101264.84
2022-10-09T00:04:39.230Z,101271.06
2022-10-09T00:07:05.484Z,101271.88
2022-10-09T00:09:31.734Z,101274.66
2022-10-09T00:11:57.979Z,101274.66
2022-10-09T00:14:24.218Z,101281.75
2022-10-09T00:16:50.514Z,101283.66
2022-10-09T00:19:16.790Z,101273.00
2022-10-09T00:21:43.055Z,101281.34
2022-10-09T00:24:09.311Z,101284.09
2022-10-09T00:26:35.705Z,101282.03
2022-10-09T00:29:01.954Z,101279.16
2022-10-09T00:31:28.225Z,101280.16
2022-10-09T00:33:54.467Z,101278.03
2022-10-09T00:36:20.726Z,101279.56
2022-10-09T00:38:47.013Z,101271.22
2022-10-09T00:41:13.415Z,101278.94
2022-10-09T00:43:39.668Z,101281.72
2022-10-09T00:46:05.971Z,101280.22
2022-10-09T00:48:32.343Z,101281.53
2022-10-09T00:50:58.611Z,101276.34
2022-10-09T00:53:24.860Z,101281.53
2022-10-09T00:55:51.284Z,101287.75
2022-10-09T00:58:17.570Z,101273.22
2022-10-09T01:00:44.098Z,101277.25
2022-10-09T01:03:10.398Z,101277.25
2022-10-09T01:05:36.760Z,101288.75
2022-10-09T01:08:03.016Z,101277.41
2022-10-09T01:10:29.360Z,101281.84
2022-10-09T01:12:55.616Z,101280.09
2022-10-09T01:15:21.899Z,101283.97
2022-10-09T01:17:48.151Z,101283.28
2022-10-09T01:20:14.445Z,101282.22
2022-10-09T01:22:40.691Z,101281.31
2022-10-09T01:25:06.989Z,101290.69
2022-10-09T01:27:33.244Z,101286.19
2022-10-09T01:29:59.527Z,101290.81
2022-10-09T01:32:25.784Z,101287.47
2022-10-09T01:34:52.162Z,101296.22
2022-10-09T01:37:18.408Z,101297.22
2022-10-09T01:39:44.664Z,101299.16
2022-10-09T01:42:10.918Z,101302.63
2022-10-09T01:44:37.204Z,101299.00
2022-10-09T01:47:04.526Z,101300.03
2022-10-09T01:49:30.799Z,101307.16
2022-10-09T01:51:57.051Z,101306.50
2022-10-09T01:54:23.411Z,101307.63
2022-10-09T01:56:49.709Z,101314.50
2022-10-09T01:59:16.330Z,101307.34
2022-10-09T02:01:42.755Z,101304.72
2022-10-09T02:04:09.144Z,101317.03
2022-10-09T02:06:35.645Z,101317.03
2022-10-09T02:09:01.916Z,101307.91
2022-10-09T02:11:28.162Z,101319.22
2022-10-09T02:13:54.443Z,101320.47
2022-10-09T02:16:20.785Z,101326.91
2022-10-09T02:18:47.153Z,101326.69
2022-10-09T02:21:13.407Z,101328.50
2022-10-09T02:23:39.657Z,101325.03
2022-10-09T02:26:05.834Z,101329.56
2022-10-09T02:28:32.151Z,101318.06
2022-10-09T02:30:58.645Z,101332.16
2022-10-09T02:33:24.940Z,101333.13
2022-10-09T02:35:51.190Z,101337.22
2022-10-09T02:38:17.509Z,101339.47
2022-10-09T02:40:43.766Z,101334.81
2022-10-09T02:43:10.028Z,101337.75
2022-10-09T02:45:36.292Z,101339.94
2022-10-09T02:48:02.554Z,101340.63
2022-10-09T02:50:28.811Z,101344.41
2022-10-09T02:52:55.065Z,101351.25
2022-10-09T02:55:21.298Z,101347.75
2022-10-09T02:57:47.551Z,101350.25
2022-10-09T03:00:13.727Z,101348.13
2022-10-09T03:02:39.990Z,101353.47
2022-10-09T03:05:06.303Z,101349.03
2022-10-09T03:07:32.490Z,101356.50
2022-10-09T03:09:58.801Z,101355.31
2022-10-09T03:12:25.047Z,101355.81
2022-10-09T03:14:51.287Z,101362.50
2022-10-09T03:17:17.466Z,101363.69
2022-10-09T03:19:43.651Z,101370.31
2022-10-09T03:22:09.843Z,101365.72
2022-10-09T03:24:36.103Z,101372.81
2022-10-09T03:27:02.363Z,101365.97
2022-10-09T03:29:28.546Z,101371.31
2022-10-09T03:31:54.868Z,101370.50
2022-10-09T03:34:21.079Z,101377.38
2022-10-09T03:36:47.290Z,101381.72
2022-10-09T03:39:13.526Z,101385.25
2022-10-09T03:41:39.801Z,101380.00
2022-10-09T03:44:06.011Z,101380.81
2022-10-09T03:46:32.290Z,101382.72
2022-10-09T03:48:58.549Z,101387.53
2022-10-09T03:51:24.757Z,101390.22
2022-10-09T03:53:50.942Z,101380.34
2022-10-09T03:56:17.144Z,101395.47
2022-10-09T03:58:43.336Z,101399.13
2022-10-09T04:01:09.680Z,101392.06
2022-10-09T04:03:35.920Z,101402.72
2022-10-09T04:06:02.130Z,101398.31
2022-10-09T04:08:28.308Z,101398.38
2022-10-09T04:10:54.597Z,101402.78
2022-10-09T04:13:20.785Z,101391.97
2022-10-09T04:15:46.989Z,101399.63
2022-10-09T04:18:13.166Z,101401.38
2022-10-09T04:20:39.363Z,101402.22
2022-10-09T04:23:05.529Z,101400.63
2022-10-09T04:25:31.869Z,101395.50
2022-10-09T04:27:58.062Z,101402.72
2022-10-09T04:30:24.266Z,101400.81
2022-10-09T04:32:50.659Z,101406.91
2022-10-09T04:35:17.214Z,101408.78
2022-10-09T04:37:43.438Z,101400.78
2022-10-09T04:40:09.634Z,101410.75
2022-10-09T04:42:35.811Z,101414.34
2022-10-09T04:45:02.139Z,101405.50
2022-10-09T04:47:28.317Z,101406.00
2022-10-09T04:49:54.663Z,101409.44
2022-10-09T04:52:20.859Z,101404.13
2022-10-09T04:54:47.058Z,101408.50
2022-10-09T04:57:13.338Z,101405.97
2022-10-09T04:59:39.564Z,101405.09
2022-10-09T05:02:05.852Z,101412.31
2022-10-09T05:04:32.127Z,101416.84
2022-10-09T05:06:58.328Z,101411.75
2022-10-09T05:09:24.507Z,101408.94
2022-10-09T05:11:50.694Z,101417.06
2022-10-09T05:14:16.876Z,101414.44
2022-10-09T05:17:08.508Z,101418.06
2022-10-09T05:19:29.298Z,101425.09
2022-10-09T05:21:55.492Z,101431.53
2022-10-09T05:24:21.742Z,101431.72
2022-10-09T05:26:47.951Z,101434.94
2022-10-09T05:29:14.156Z,101441.91
2022-10-09T05:31:40.414Z,101430.75
2022-10-09T05:34:06.695Z,101445.22
2022-10-09T05:36:32.878Z,101444.13
2022-10-09T05:39:01.229Z,101438.59
2022-10-09T05:41:28.406Z,101446.47
2022-10-09T05:43:54.588Z,101444.59
2022-10-09T05:46:20.927Z,101440.97
2022-10-09T05:48:47.201Z,101438.22
2022-10-09T05:51:13.410Z,101439.13
2022-10-09T05:53:39.615Z,101440.91
2022-10-09T05:56:05.808Z,101446.06
2022-10-09T05:58:32.005Z,101443.28
2022-10-09T06:00:58.223Z,101452.09
2022-10-09T06:03:24.416Z,101453.66
2022-10-09T06:05:50.618Z,101443.78
2022-10-09T06:08:16.805Z,101446.28
2022-10-09T06:10:43.012Z,101449.66
2022-10-09T06:13:09.203Z,101451.34
2022-10-09T06:15:35.388Z,101458.38
2022-10-09T06:18:01.572Z,101453.84
2022-10-09T06:20:28.066Z,101455.56
2022-10-09T06:22:54.243Z,101451.78
2022-10-09T06:25:20.428Z,101466.75
2022-10-09T06:27:46.623Z,101463.56
2022-10-09T06:30:12.807Z,101476.81
2022-10-09T06:32:38.998Z,101476.22
2022-10-09T06:35:05.185Z,101466.06
2022-10-09T06:37:31.431Z,101472.22
2022-10-09T06:39:57.623Z,101480.88
2022-10-09T06:42:23.848Z,101488.41
2022-10-09T06:44:50.022Z,101483.25
2022-10-09T06:47:16.271Z,101479.72
2022-10-09T06:49:42.459Z,101477.03
2022-10-09T06:52:08.722Z,101491.03
2022-10-09T06:54:34.966Z,101489.00
2022-10-09T06:57:01.155Z,101486.06
2022-10-09T06:59:27.428Z,101490.03
2022-10-09T07:01:53.752Z,101493.19
2022-10-09T07:04:21.555Z,101500.22
2022-10-09T07:06:48.079Z,101496.13
2022-10-09T07:09:14.371Z,101499.13
2022-10-09T07:11:40.600Z,101501.50
2022-10-09T07:14:06.770Z,101494.91
2022-10-09T07:16:33.206Z,101505.09
2022-10-09T07:19:03.758Z,101502.97
2022-10-09T07:21:30.016Z,101505.09
2022-10-09T07:23:56.323Z,101501.16
2022-10-09T07:26:22.584Z,101510.59
2022-10-09T07:28:48.955Z,101511.66
2022-10-09T07:31:15.334Z,101513.28
2022-10-09T07:33:41.661Z,101506.34
2022-10-09T07:36:07.915Z,101518.06
2022-10-09T07:38:34.188Z,101524.69
2022-10-09T07:41:00.606Z,101524.34
2022-10-09T07:43:26.882Z,101524.72
2022-10-09T07:45:53.195Z,101523.50
2022-10-09T07:48:19.482Z,101533.03
2022-10-09T07:50:45.736Z,101526.75
2022-10-09T07:53:12.017Z,101522.13
2022-10-09T07:55:38.272Z,101517.28
2022-10-09T07:58:04.566Z,101520.69
2022-10-09T08:00:30.814Z,101512.38
2022-10-09T08:02:57.181Z,101517.25
2022-10-09T08:05:23.457Z,101520.56
2022-10-09T08:07:49.712Z,101527.84
2022-10-09T08:10:15.969Z,101515.13
2022-10-09T08:12:42.246Z,101521.44
2022-10-09T08:15:08.539Z,101522.97
2022-10-09T08:17:34.842Z,101515.72
2022-10-09T08:20:01.112Z,101516.56
2022-10-09T08:22:27.378Z,101518.44
2022-10-09T08:24:53.635Z,101521.84
2022-10-09T08:27:19.886Z,101518.31
2022-10-09T08:29:46.139Z,101521.66
2022-10-09T08:32:12.399Z,101515.72
2022-10-09T08:34:38.659Z,101512.38
2022-10-09T08:37:04.911Z,101509.81
2022-10-09T08:39:32.247Z,101511.06
2022-10-09T08:42:01.335Z,101514.69
2022-10-09T08:44:27.610Z,101511.66
2022-10-09T08:46:54.019Z,101507.25
2022-10-09T08:49:21.443Z,101513.91
2022-10-09T08:51:47.717Z,101511.41
2022-10-09T08:54:14.009Z,101511.06
2022-10-09T08:56:40.274Z,101509.72
2022-10-09T08:59:06.570Z,101514.81
2022-10-09T09:01:32.898Z,101512.47
2022-10-09T09:03:59.251Z,101506.53
2022-10-09T09:06:25.490Z,101510.88
2022-10-09T09:08:51.753Z,101510.16
2022-10-09T09:11:21.449Z,101505.28
2022-10-09T09:13:51.368Z,101498.22
2022-10-09T09:16:17.683Z,101499.69
2022-10-09T09:18:44.230Z,101498.22
2022-10-09T09:21:10.486Z,101500.50
2022-10-09T09:23:36.734Z,101494.75
2022-10-09T09:26:03.059Z,101496.59
2022-10-09T09:28:29.404Z,101498.50
2022-10-09T09:30:57.750Z,101498.59
2022-10-09T09:33:24.055Z,101492.63
2022-10-09T09:35:50.299Z,101489.66
2022-10-09T09:38:16.568Z,101488.13
2022-10-09T09:40:46.780Z,101491.50
2022-10-09T09:43:13.723Z,101486.47
2022-10-09T09:45:40.002Z,101486.06
2022-10-09T09:48:06.256Z,101480.38
2022-10-09T09:50:47.061Z,101470.47
2022-10-09T09:53:16.630Z,101465.22
2022-10-09T09:55:42.924Z,101474.91
2022-10-09T09:58:09.201Z,101468.00
2022-10-09T10:00:35.574Z,101460.25
2022-10-09T10:03:01.908Z,101467.19
2022-10-09T10:05:28.155Z,101463.28
2022-10-09T10:07:54.406Z,101466.19
2022-10-09T10:10:25.007Z,101456.38
2022-10-09T10:12:52.388Z,101460.19
2022-10-09T10:15:18.972Z,101464.13
2022-10-09T10:17:45.255Z,101466.03
2022-10-09T10:20:11.511Z,101456.56
2022-10-09T10:22:37.778Z,101446.25
2022-10-09T10:25:04.037Z,101456.88
2022-10-09T10:27:30.584Z,101446.25
2022-10-09T10:29:56.845Z,101449.22
2022-10-09T10:32:23.108Z,101445.31
2022-10-09T10:34:49.393Z,101441.53
2022-10-09T10:37:15.651Z,101444.34
2022-10-09T10:39:41.906Z,101435.91
2022-10-09T10:42:08.169Z,101443.25
2022-10-09T10:44:34.410Z,101444.78
2022-10-09T10:47:00.809Z,101437.44
2022-10-09T10:49:31.649Z,101437.09
2022-10-09T10:51:59.915Z,101430.25
2022-10-09T10:54:26.194Z,101429.00
2022-10-09T10:56:52.486Z,101427.00
2022-10-09T10:59:18.757Z,101429.75
2022-10-09T11:01:45.012Z,101415.75
2022-10-09T11:04:11.270Z,101414.50
2022-10-09T11:06:37.544Z,101415.44
2022-10-09T11:09:05.328Z,101407.13
2022-10-09T11:11:33.597Z,101414.06
2022-10-09T11:13:59.871Z,101409.19
2022-10-09T11:16:26.174Z,101403.44
2022-10-09T11:18:52.440Z,101395.00
2022-10-09T11:21:18.717Z,101395.88
2022-10-09T11:23:44.978Z,101384.69
2022-10-09T11:26:11.228Z,101380.94
2022-10-09T11:28:37.551Z,101379.63
2022-10-09T11:31:03.822Z,101379.31
2022-10-09T11:33:30.163Z,101364.41
2022-10-09T11:35:56.410Z,101360.81
2022-10-09T11:38:22.713Z,101354.09
2022-10-09T11:40:49.064Z,101356.25
2022-10-09T11:43:15.331Z,101349.88
2022-10-09T11:45:41.652Z,101353.22
2022-10-09T11:48:08.050Z,101341.56
2022-10-09T11:50:34.336Z,101330.31
2022-10-09T11:53:00.629Z,101334.34
2022-10-09T11:55:26.912Z,101325.81
2022-10-09T11:57:53.351Z,101321.22
2022-10-09T12:00:19.842Z,101324.31
2022-10-09T12:02:46.140Z,101313.56
2022-10-09T12:05:12.440Z,101309.97
2022-10-09T12:10:09.874Z,101304.03
2022-10-09T12:12:37.698Z,101308.50
2022-10-09T12:15:03.983Z,101299.69
2022-10-09T12:17:30.251Z,101292.28
2022-10-09T12:20:00.935Z,101292.03
2022-10-09T12:22:27.516Z,101283.63
2022-10-09T12:24:53.763Z,101291.00
2022-10-09T12:27:20.033Z,101281.28
2022-10-09T12:29:46.326Z,101276.75
2022-10-09T12:32:12.578Z,101275.25
2022-10-09T12:34:38.893Z,101266.53
2022-10-09T12:37:05.218Z,101268.13
2022-10-09T12:39:33.663Z,101269.22
2022-10-09T12:41:59.928Z,101264.69
2022-10-09T12:44:26.189Z,101261.47
2022-10-09T12:46:52.469Z,101262.22
2022-10-09T12:49:18.722Z,101266.16
2022-10-09T12:51:44.970Z,101252.75
2022-10-09T12:54:11.274Z,101256.19
2022-10-09T12:56:38.288Z,101247.53
2022-10-09T12:59:04.507Z,101242.16
2022-10-09T13:01:30.999Z,101257.94
2022-10-09T13:03:57.382Z,101237.50
2022-10-09T13:06:23.660Z,101245.72
2022-10-09T13:08:49.943Z,101238.34
2022-10-09T13:11:16.205Z,101234.41
2022-10-09T13:13:42.478Z,101234.56
2022-10-09T13:16:09.502Z,101224.81
2022-10-09T13:18:35.773Z,101225.81
2022-10-09T13:21:02.174Z,101227.53
2022-10-09T13:23:28.530Z,101215.72
2022-10-09T13:25:54.815Z,101216.50
2022-10-09T13:28:21.139Z,101213.16
2022-10-09T13:31:04.081Z,101209.56
2022-10-09T13:33:30.362Z,101208.56
2022-10-09T13:35:56.616Z,101204.91
2022-10-09T13:38:23.906Z,101202.31
2022-10-09T13:40:50.298Z,101205.50
2022-10-09T13:43:16.545Z,101198.38
2022-10-09T13:45:43.892Z,101193.03
2022-10-09T13:48:10.164Z,101191.81
2022-10-09T13:50:36.410Z,101186.66
2022-10-09T13:53:02.677Z,101173.69
2022-10-09T13:55:28.930Z,101174.81
2022-10-09T13:57:55.446Z,101180.59
2022-10-09T14:00:21.879Z,101173.25
2022-10-09T14:02:48.166Z,101173.13
2022-10-09T14:05:14.430Z,101183.59
2022-10-09T14:07:40.718Z,101169.75
2022-10-09T14:13:09.989Z,101168.94
2022-10-09T14:15:36.285Z,101156.97
2022-10-09T14:18:02.559Z,101165.34
2022-10-09T14:20:28.826Z,101155.88
2022-10-09T14:22:55.066Z,101162.50
2022-10-09T14:25:21.355Z,101156.34
2022-10-09T14:27:47.659Z,101160.34
2022-10-09T14:30:13.913Z,101148.88
2022-10-09T14:32:40.155Z,101146.28
2022-10-09T14:35:06.402Z,101144.56
2022-10-09T14:37:41.549Z,101140.72
2022-10-09T14:40:08.564Z,101134.94
2022-10-09T14:42:34.877Z,101127.09
2022-10-09T14:45:01.176Z,101135.44
2022-10-09T14:47:27.456Z,101135.44
2022-10-09T14:49:54.026Z,101128.72
2022-10-09T14:52:20.300Z,101125.88
2022-10-09T14:54:46.572Z,101132.25
2022-10-09T14:57:13.044Z,101129.94
2022-10-09T14:59:39.292Z,101129.53
2022-10-09T15:02:07.022Z,101124.13
2022-10-09T15:04:33.366Z,101122.56
2022-10-09T15:06:59.644Z,101118.72
2022-10-09T15:09:26.400Z,101122.28
2022-10-09T15:11:52.735Z,101115.03
2022-10-09T15:14:18.986Z,101107.88
2022-10-09T15:16:45.446Z,101114.41
2022-10-09T15:19:11.721Z,101117.75
2022-10-09T15:21:37.985Z,101113.78
2022-10-09T15:24:04.252Z,101114.66
2022-10-09T15:26:30.502Z,101105.31
2022-10-09T15:28:57.631Z,101109.50
2022-10-09T15:31:24.009Z,101110.50
2022-10-09T15:33:50.354Z,101099.56
2022-10-09T15:36:16.618Z,101108.28
2022-10-09T15:38:42.927Z,101098.09
2022-10-09T15:41:09.184Z,101105.34
2022-10-09T15:46:38.448Z,101097.34
2022-10-09T15:49:04.710Z,101102.25
2022-10-09T15:51:33.032Z,101101.72
2022-10-09T15:53:59.876Z,101097.56
2022-10-09T15:56:26.126Z,101094.13
2022-10-09T15:58:52.387Z,101101.50
2022-10-09T16:01:18.758Z,101104.66
2022-10-09T16:03:45.057Z,101098.75
2022-10-09T16:06:11.317Z,101104.72
2022-10-09T16:08:37.567Z,101100.31
2022-10-09T16:11:03.840Z,101091.75
2022-10-09T16:13:30.156Z,101102.69
2022-10-09T16:15:56.407Z,101109.44
2022-10-09T16:18:22.672Z,101105.25
2022-10-09T16:20:48.941Z,101104.09
2022-10-09T16:23:15.200Z,101101.00
2022-10-09T16:25:41.463Z,101098.53
2022-10-09T16:28:07.776Z,101111.75
2022-10-09T16:30:34.189Z,101102.72
2022-10-09T16:33:00.448Z,101103.41
2022-10-09T16:35:26.703Z,101099.06
2022-10-09T16:37:53.252Z,101104.34
2022-10-09T16:40:21.072Z,101115.25
2022-10-09T16:42:52.130Z,101101.38
2022-10-09T16:45:18.515Z,101105.66
2022-10-09T16:47:45.509Z,101109.88
2022-10-09T16:50:12.028Z,101117.78
2022-10-09T16:52:38.285Z,101108.28
2022-10-09T16:55:04.549Z,101114.31
2022-10-09T16:57:30.809Z,101108.63
2022-10-09T16:59:57.078Z,101108.97
2022-10-09T17:02:23.338Z,101109.38
2022-10-09T17:04:49.586Z,101099.25
2022-10-09T17:07:15.863Z,101103.34
2022-10-09T17:09:42.924Z,101096.66
2022-10-09T17:12:09.698Z,101101.28
2022-10-09T17:14:36.847Z,101092.94
2022-10-09T17:17:03.039Z,101091.00
2022-10-09T17:19:29.291Z,101095.81
2022-10-09T17:21:55.653Z,101091.63
2022-10-09T17:24:21.899Z,101079.53
2022-10-09T17:26:48.222Z,101090.72
2022-10-09T17:29:14.490Z,101081.81
2022-10-09T17:31:40.818Z,101082.34
2022-10-09T17:34:07.122Z,101084.97
2022-10-09T17:36:33.370Z,101080.88
2022-10-09T17:38:59.704Z,101082.81
2022-10-09T17:41:25.946Z,101080.41
2022-10-09T17:43:52.291Z,101078.88
2022-10-09T17:46:18.578Z,101082.16
2022-10-09T17:48:48.416Z,101081.03
2022-10-09T17:51:14.851Z,101084.19
2022-10-09T17:53:41.122Z,101082.69
2022-10-09T17:56:07.388Z,101078.16
2022-10-09T17:58:33.643Z,101080.28
2022-10-09T18:00:59.949Z,101083.44
2022-10-09T18:03:26.224Z,101079.69
2022-10-09T18:05:52.498Z,101081.91
2022-10-09T18:08:18.810Z,101082.38
2022-10-09T18:10:45.070Z,101085.50
2022-10-09T18:13:11.344Z,101087.75
2022-10-09T18:15:37.732Z,101087.97
2022-10-09T18:18:04.003Z,101086.06
2022-10-09T18:20:32.900Z,101084.03
2022-10-09T18:22:59.175Z,101085.22
2022-10-09T18:25:25.423Z,101076.38
2022-10-09T18:27:52.101Z,101078.88
2022-10-09T18:30:20.536Z,101081.06
2022-10-09T18:32:46.957Z,101087.03
2022-10-09T18:35:13.396Z,101079.56
2022-10-09T18:37:39.653Z,101084.81
2022-10-09T18:40:05.906Z,101075.41
2022-10-09T18:42:32.161Z,101076.19
2022-10-09T18:44:58.487Z,101066.97
2022-10-09T18:47:26.147Z,101070.63
2022-10-09T18:49:52.475Z,101069.53
2022-10-09T18:52:18.728Z,101061.66
2022-10-09T18:54:44.979Z,101064.22
2022-10-09T18:57:11.272Z,101065.84
2022-10-09T18:59:38.020Z,101067.69
2022-10-09T19:02:04.274Z,101067.97
2022-10-09T19:04:30.575Z,101063.53
2022-10-09T19:06:56.869Z,101066.13
2022-10-09T19:09:23.118Z,101062.97
2022-10-09T19:11:49.453Z,101061.75
2022-10-09T19:14:15.892Z,101065.47
2022-10-09T19:16:42.164Z,101057.75
2022-10-09T19:19:08.465Z,101062.56
2022-10-09T19:21:34.735Z,101050.34
2022-10-09T19:24:04.372Z,101045.41
2022-10-09T19:26:30.633Z,101055.53
2022-10-09T19:28:56.891Z,101049.38
2022-10-09T19:31:23.151Z,101047.66
2022-10-09T19:33:49.411Z,101047.88
2022-10-09T19:36:15.663Z,101049.34
2022-10-09T19:38:41.914Z,101043.03
2022-10-09T19:41:08.170Z,101040.63
2022-10-09T19:43:34.541Z,101043.59
2022-10-09T19:46:00.790Z,101040.75
2022-10-09T19:48:27.053Z,101034.50
2022-10-09T19:50:53.318Z,101032.34
2022-10-09T19:53:19.574Z,101035.50
2022-10-09T19:55:45.826Z,101027.72
2022-10-09T19:58:17.723Z,101027.25
2022-10-09T20:00:44.158Z,101026.34
2022-10-09T20:03:10.411Z,101021.91
2022-10-09T20:05:36.666Z,101026.84
2022-10-09T20:08:02.924Z,101021.75
2022-10-09T20:10:29.183Z,101018.38
2022-10-09T20:12:55.450Z,101020.34
2022-10-09T20:15:22.284Z,101020.19
2022-10-09T20:17:48.541Z,101007.66
2022-10-09T20:20:14.789Z,101004.28
2022-10-09T20:22:41.111Z,101008.78
2022-10-09T20:25:07.362Z,100995.38
2022-10-09T20:27:33.627Z,100996.06
2022-10-09T20:29:59.881Z,100995.88
2022-10-09T20:32:26.161Z,100994.19
2022-10-09T20:34:52.451Z,100986.44
2022-10-09T20:37:18.690Z,100989.81
2022-10-09T20:39:44.954Z,100984.78
2022-10-09T20:42:11.215Z,100991.88
2022-10-09T20:44:37.487Z,100984.63
2022-10-09T21:01:36.727Z,100964.50
2022-10-09T21:04:03.203Z,100969.50
2022-10-09T21:06:30.157Z,100965.97
2022-10-09T21:08:56.436Z,100967.63
2022-10-09T21:11:22.732Z,100962.97
2022-10-09T21:13:49.003Z,100957.59
2022-10-09T21:16:15.240Z,100948.28
2022-10-09T21:18:41.506Z,100948.91
2022-10-09T21:21:07.755Z,100945.00
2022-10-09T21:23:34.034Z,100948.88
2022-10-09T21:26:00.278Z,100949.84
2022-10-09T21:28:26.671Z,100945.28
2022-10-09T21:30:52.915Z,100943.34
2022-10-09T21:33:19.182Z,100943.69
2022-10-09T21:35:45.713Z,100942.66
2022-10-09T21:38:12.583Z,100938.94
2022-10-09T21:40:38.834Z,100936.97
2022-10-09T21:43:05.112Z,100921.00
2022-10-09T21:45:31.418Z,100929.97
2022-10-09T21:47:57.693Z,100923.75
2022-10-09T21:50:24.015Z,100930.06
2022-10-09T21:52:50.461Z,100925.81
2022-10-09T21:55:16.925Z,100930.22
2022-10-09T21:57:45.203Z,100923.66
2022-10-09T22:00:11.595Z,100922.09
2022-10-09T22:02:37.888Z,100916.66
2022-10-09T22:05:04.148Z,100915.81
2022-10-09T22:07:32.726Z,100916.75
2022-10-09T22:09:58.984Z,100914.25
2022-10-09T22:12:25.256Z,100909.81
2022-10-09T22:14:51.498Z,100908.72
2022-10-09T22:17:17.780Z,100910.47
2022-10-09T22:19:44.216Z,100908.72
2022-10-09T22:22:10.473Z,100899.97
2022-10-09T22:24:36.765Z,100895.75
2022-10-09T22:27:03.006Z,100897.56
2022-10-09T22:29:29.262Z,100896.16
2022-10-09T22:31:55.526Z,100893.47
2022-10-09T22:34:21.789Z,100896.63
2022-10-09T22:36:48.064Z,100892.91
2022-10-09T22:39:14.338Z,100903.88
2022-10-09T22:41:40.608Z,100890.56
2022-10-09T22:44:06.861Z,100893.69
2022-10-09T22:46:33.120Z,100881.50
2022-10-09T22:48:59.378Z,100880.56
2022-10-09T22:51:25.743Z,100882.38
2022-10-09T22:53:52.209Z,100875.78
2022-10-09T22:56:18.463Z,100873.56
2022-10-09T22:58:44.743Z,100869.13
2022-10-09T23:01:11.220Z,100869.66
2022-10-09T23:03:37.595Z,100859.47
2022-10-09T23:06:03.845Z,100859.22
2022-10-09T23:08:30.102Z,100864.31
2022-10-09T23:10:56.362Z,100854.47
2022-10-09T23:13:22.685Z,100854.47
2022-10-09T23:15:48.939Z,100850.59
2022-10-09T23:18:15.340Z,100848.78
2022-10-09T23:20:41.656Z,100844.63
2022-10-09T23:23:07.932Z,100847.06
2022-10-09T23:25:34.179Z,100839.16
2022-10-09T23:28:00.459Z,100842.56
2022-10-09T23:30:26.735Z,100836.59
2022-10-09T23:32:53.098Z,100839.53
2022-10-09T23:35:19.499Z,100844.97
2022-10-09T23:37:45.747Z,100839.53
2022-10-09T23:40:12.006Z,100834.25
2022-10-09T23:42:38.268Z,100828.72
2022-10-09T23:45:04.557Z,100828.66
2022-10-09T23:47:30.812Z,100828.72
2022-10-09T23:49:57.073Z,100828.72
2022-10-09T23:52:23.315Z,100823.38
2022-10-09T23:54:49.562Z,100822.50
2022-10-09T23:57:15.829Z,100823.56
2022-10-09T23:59:42.148Z,100812.50
